Date,TemperatureHighF,TemperatureAvgF,TemperatureLowF,DewpointHighF,DewpointAvgF,DewpointLowF,HumidityHigh,HumidityAvg,HumidityLow,PressureMaxIn,PressureMinIn,WindSpeedMaxMPH,WindSpeedAvgMPH,GustSpeedMaxMPH,PrecipitationSumIn
2013-2-1,19.4,12.7,7.2,10.5,4.9,0.1,81,70,60,30.48,30.10,10,3,19,0.00
2013-2-2,32.4,24.2,13.7,27.3,20.1,8.1,90,84,75,30.41,30.06,5,1,12,0.00
2013-2-3,28.3,21.9,16.3,24.4,16.4,12.2,92,79,71,30.18,29.99,7,2,11,0.00
2013-2-4,35.0,27.6,16.7,33.5,24.3,14.8,96,88,72,30.18,29.88,4,0,7,0.00
2013-2-5,37.4,33.6,28.1,34.7,30.0,25.3,97,87,78,30.06,29.90,4,1,8,0.04
2013-2-6,37.5,34.2,28.9,32.4,28.8,26.0,90,80,72,30.31,30.06,7,1,15,0.02
2013-2-7,60.5,43.3,31.5,40.0,33.4,27.1,87,70,42,30.26,29.84,3,0,6,0.00
2013-2-8,53.0,38.0,32.1,45.5,32.4,24.0,93,80,59,30.36,29.83,10,3,21,0.11
2013-2-9,41.6,32.1,20.3,24.3,21.1,17.8,92,65,40,30.48,30.27,3,1,7,0.00
2013-2-10,55.1,42.9,30.8,45.4,31.6,21.3,93,65,43,30.28,29.83,7,2,18,0.03
2013-2-11,52.8,47.2,38.7,50.3,36.8,28.9,95,68,49,30.08,29.80,13,4,27,0.00
2013-2-12,50.8,39.0,30.2,30.1,27.5,24.9,84,65,38,30.17,29.95,5,1,12,0.00
2013-2-13,36.0,32.3,30.0,29.6,28.2,26.1,92,85,69,29.94,29.82,3,0,6,0.00
2013-2-15,42.0,35.1,27.8,33.1,28.8,23.6,91,78,60,30.20,30.05,8,2,15,0.00
2013-2-16,29.7,24.0,18.7,21.0,16.4,10.8,94,73,52,30.18,30.09,8,2,16,0.00
2013-2-17,20.6,20.1,18.6,15.2,12.8,11.4,84,73,67,30.19,30.17,4,1,7,0.00
2013-2-18,57.4,52.6,45.4,40.9,36.6,33.4,84,56,44,29.90,29.79,6,2,15,0.08
2013-2-19,45.7,33.2,24.5,41.9,26.5,15.6,95,76,59,30.16,29.69,12,4,24,0.18
2013-2-20,29.3,22.7,20.0,17.4,13.5,11.4,77,68,53,30.36,30.16,9,3,19,0.00
2013-2-21,32.9,26.5,20.1,26.8,19.2,13.6,88,74,62,30.42,30.10,7,1,11,0.00
2013-2-22,43.7,35.6,30.0,39.2,33.2,26.8,97,91,82,30.13,29.94,7,1,20,0.01
2013-2-23,44.1,36.5,31.8,34.1,28.2,25.5,96,73,50,30.04,29.95,6,1,12,0.00
2013-2-24,43.2,33.0,26.4,27.1,24.5,21.4,86,72,50,30.20,29.98,6,1,10,0.00
2013-2-25,46.6,35.6,24.6,27.9,24.7,20.7,88,66,47,30.22,29.94,5,1,10,0.00
2013-2-26,48.6,41.5,35.1,47.4,37.2,25.1,96,85,63,29.95,29.39,10,1,15,0.88
2013-2-27,42.1,37.2,33.6,40.2,34.5,30.6,94,90,81,29.76,29.55,7,1,17,0.05
2013-2-28,36.9,34.8,32.7,33.9,31.9,29.3,93,89,85,29.99,29.73,9,2,14,0.04